Impacts TAF Board INFO
FOR SITUATIONAL AWARENESS. NOT TO BE USED FOR FLIGHT PLANNING PURPOSES.
IDs:

KCVG - Cincinnati Intl, KY, US

Issued at 1740 UTC 13 Dec 2017
Updated at 2052 UTC 13 Dec 2017
Potential Impact None Slight Moderate High
Time1952Z 13/21Z 13/22Z 13/23Z 14/00Z 14/01Z 14/02Z 14/03Z 14/04Z 14/05Z 14/06Z 14/07Z 14/08Z 14/09Z>>
Type OBS PRVL PRVL PRVL PRVL PRVL PRVL PRVL PRVL PRVL PRVL PRVL PRVL PRVL
VIS 10 >6 >6 >6 >6 >6 >6 >6 >6 >6 >6 >6 >6 >6
CIG 100 70 60 60 60 60 60 35 35 35 25 25 25 25
Cover OVC BKN OVC OVC OVC OVC OVC OVC OVC OVC OVC OVC OVC OVC
FltCat VFR VFR VFR VFR VFR VFR VFR VFR VFR VFR MVFR MVFR MVFR MVFR
WX -- -- -- -- -- -- -- -- -- -- -- -- -- --
WDir 190 190 230 230 230 230 230 270 270 270 310 310 310 310
WSpd 17 14 19 19 19 19 19 14 14 14 12 12 12 12
WGst 26 22 30 30 30 30 30 24 24 24 -- -- -- --

Raw TAF
KCVG 131740Z 1318/1424 19014G22KT P6SM BKN070
  FM132200 23019G30KT P6SM OVC060
  FM140300 27014G24KT P6SM OVC035
  FM140600 31012KT P6SM OVC025
  FM141200 35008KT P6SM OVC025
  FM141600 35007KT P6SM SCT030


Raw METAR
KCVG 131952Z 19017G26KT 10SM BKN100 OVC150 03/M12 A2948 RMK AO2 PK WND 18027/1924 SLP990 SHSN VC E-S T00281117
KCVG 131852Z 19014KT 10SM FEW070 BKN100 OVC130 02/M11 A2957 RMK AO2 SLP021 VIRGA W N T00171111
KCVG 131752Z 19011G20KT 10SM FEW065 BKN080 OVC130 00/M11 A2964 RMK AO2 PRESFR SLP044 T00001111 10000 21067 58064

METAR Board
Radar Display
Forecast Discussion

FOR SITUATIONAL AWARENESS. NOT TO BE USED FOR FLIGHT PLANNING PURPOSES.